Flight Track Log - Related Links

Times and Time Zones

All times are in EDT time to prevent confusion due to time zone crossing. See the CTL312 flight status page for this flight to view local times or setup timezone preferences in your user account.

Time Position Orientation Groundspeed Altitude Reporting Facility
EDT Latitude Longitude Course Direction KTS MPH feet Rate Location/Type
Wed 07:11:27 PM 41.5356 -81.6844 330° Northwest 145 167 1,200  Level Cleveland Center
Wed 07:11:58 PM 41.5542 -81.6986 330° Northwest 155 178 1,500 791 Climbing Cleveland Center
Wed 07:12:58 PM 41.5683 -81.7572 288° West 168 193 2,400 906 Climbing Cleveland Center
Wed 07:14:00 PM 41.5174 -81.7541 177° South  Level FlightAware Approximate
Wed 07:14:17 PM 41.5800 -81.8294 177° South 153 176 3,600  Level Cleveland Center
Wed 07:15:12 PM 41.5753 -81.8822 263° West 154 177 4,400 818 Climbing Cleveland Center
Wed 07:16:07 PM 41.5725 -81.9319 266° West 149 171 5,100 678 Climbing Cleveland Center
Wed 07:17:07 PM 41.5553 -81.9844 246° West 160 184 5,700 472 Climbing Cleveland Center
Wed 07:18:14 PM 41.5172 -82.0364 226° Southwest 174 200 6,100 188 Climbing Cleveland Center
Wed 07:19:15 PM 41.4772 -82.0658 209° Southwest 177 204 6,100  Level Cleveland Center
Wed 07:20:16 PM 41.4292 -82.0647 179° South 168 193 6,100  Level Cleveland Center
Wed 07:21:11 PM 41.3914 -82.0778 195° South 184 212 6,100  Level Cleveland Center
Wed 07:22:17 PM 41.3492 -82.1322 224° Southwest 185 213 6,100  Level Cleveland Center
Wed 07:23:24 PM 41.3108 -82.1864 227° Southwest 183 211 6,100  Level Cleveland Center
Wed 07:24:13 PM 41.2872 -82.2272 232° Southwest 182 209 6,100 -6 Level Cleveland Center
Wed 07:26:00 PM 41.2225 -82.2987 220° Southwest  Level FlightAware Approximate
Wed 07:33:00 PM 40.9699 -82.5816 221° Southwest  Level FlightAware Approximate
Wed 07:34:00 PM 40.9341 -82.6223 221° Southwest  Level FlightAware Approximate
Wed 07:35:00 PM 40.8983 -82.6630 221° Southwest  Level FlightAware Approximate
Wed 07:36:00 PM 40.8625 -82.7036 221° Southwest  Level FlightAware Approximate
Wed 07:37:00 PM 40.8266 -82.7441 221° Southwest  Level FlightAware Approximate
Wed 07:38:00 PM 40.7908 -82.7847 221° Southwest  Level FlightAware Approximate
Wed 07:39:00 PM 40.7549 -82.8251 221° Southwest  Level FlightAware Approximate
Wed 07:39:38 PM 40.7278 -82.9494 220° Southwest 184 212 6,000  Level Indianapolis Center
Wed 07:40:00 PM 40.7190 -82.8656 220° Southwest  Level FlightAware Approximate
Wed 07:40:40 PM 40.6917 -82.9969 225° Southwest 184 212 6,000  Level Indianapolis Center
Wed 07:41:00 PM 40.6831 -82.9060 220° Southwest  Level FlightAware Approximate
Wed 07:41:42 PM 40.6547 -83.0442 224° Southwest 183 211 6,000  Level Indianapolis Center
Wed 07:42:00 PM 40.6472 -82.9463 220° Southwest  Level FlightAware Approximate
Wed 07:42:44 PM 40.6172 -83.0903 223° Southwest 183 211 5,900  Level Indianapolis Center
Wed 07:43:00 PM 40.6112 -82.9866 220° Southwest  Level FlightAware Approximate
Wed 07:43:45 PM 40.5797 -83.1369 223° Southwest 184 212 6,000  Level Indianapolis Center
Wed 07:44:00 PM 40.5753 -83.0268 220° Southwest  Level FlightAware Approximate
Wed 07:44:47 PM 40.5456 -83.1853 227° Southwest 186 214 6,000  Level Indianapolis Center
Wed 07:45:00 PM 40.5393 -83.0670 220° Southwest  Level FlightAware Approximate
Wed 07:45:49 PM 40.5014 -83.2389 223° Southwest 185 213 6,000  Level Indianapolis Center
Wed 07:46:50 PM 40.4647 -83.2842 223° Southwest 182 209 6,000  Level Indianapolis Center
Wed 07:47:52 PM 40.4272 -83.3294 223° Southwest 182 209 6,000  Level Indianapolis Center
Wed 07:48:54 PM 40.3917 -83.3772 226° Southwest 181 208 6,000  Level Indianapolis Center
Wed 07:49:55 PM 40.3569 -83.4258 227° Southwest 182 209 6,000  Level Indianapolis Center
Wed 07:50:57 PM 40.3211 -83.4731 225° Southwest 182 209 6,000  Level Indianapolis Center
Wed 07:51:59 PM 40.2850 -83.5203 225° Southwest 182 209 6,000  Level Indianapolis Center
Wed 07:53:00 PM 40.2456 -83.5636 220° Southwest 174 200 6,000  Level Indianapolis Center
Wed 07:54:02 PM 40.2108 -83.6033 221° Southwest 176 203 6,000  Level Indianapolis Center
Wed 07:55:01 PM 40.1681 -83.6522 221° Southwest 175 201 6,000  Level Indianapolis Center
Wed 07:56:02 PM 40.1311 -83.6967 223° Southwest 179 206 6,000  Level Indianapolis Center
Wed 07:57:03 PM 40.0944 -83.7386 221° Southwest 176 203 6,000  Level Indianapolis Center
Wed 07:58:04 PM 40.0578 -83.7803 221° Southwest 174 200 6,000  Level Indianapolis Center
Wed 07:59:05 PM 40.0189 -83.8244 221° Southwest 174 200 6,000  Level Indianapolis Center
Wed 08:00:06 PM 39.9819 -83.8686 222° Southwest 176 203 6,000  Level Indianapolis Center
Wed 08:02:01 PM 39.9111 -83.9494 221° Southwest 176 203 6,000  Level Indianapolis Center
Wed 08:03:02 PM 39.8742 -83.9908 221° Southwest 178 205 6,000  Level Indianapolis Center
Wed 08:03:17 PM 39.8656 -83.9992 217° Southwest 177 204 6,000  Level Indianapolis Center
Wed 08:04:03 PM 39.8375 -84.0322 222° Southwest 178 205 6,000  Level Indianapolis Center
Wed 08:04:18 PM 39.8283 -84.0428 221° Southwest 178 205 6,000  Level Indianapolis Center
Wed 08:05:04 PM 39.7983 -84.0789 223° Southwest 179 206 6,000  Level Indianapolis Center
Wed 08:05:20 PM 39.7908 -84.0858 215° Southwest 178 205 6,000  Level Indianapolis Center
Wed 08:06:05 PM 39.7617 -84.1203 222° Southwest 178 205 6,000  Level Indianapolis Center
Wed 08:06:21 PM 39.7536 -84.1289 219° Southwest 178 205 6,000  Level Indianapolis Center
Wed 08:07:05 PM 39.7250 -84.1589 219° Southwest 175 201 6,000 -194 Level Indianapolis Center
Wed 08:07:23 PM 39.7150 -84.1694 219° Southwest 178 205 5,800 -590 Descending Indianapolis Center
Wed 08:08:06 PM 39.6814 -84.2072 221° Southwest 188 216 5,400 -590 Descending Indianapolis Center
Wed 08:08:24 PM 39.6747 -84.2142 219° Southwest 182 209 5,200 -689 Descending Indianapolis Center
Wed 08:09:07 PM 39.6422 -84.2536 223° Southwest 196 226 4,700 -581 Descending Indianapolis Center
Wed 08:09:26 PM 39.6328 -84.2603 209° Southwest 190 219 4,600 -590 Descending Indianapolis Center
Wed 08:10:08 PM 39.6008 -84.2969 221° Southwest 195 224 4,100 -484 Descending Indianapolis Center
Wed 08:10:28 PM 39.5925 -84.3064 221° Southwest 192 221 4,100 -98 Level Indianapolis Center
Wed 08:11:09 PM 39.5597 -84.3403 219° Southwest 186 214 4,000 -98 Descending Indianapolis Center
Wed 08:11:29 PM 39.5522 -84.3481 219° Southwest 188 216 4,000  Level Indianapolis Center
Wed 08:12:31 PM 39.5136 -84.3864 217° Southwest 180 207 4,000 -341 Level Indianapolis Center
Wed 08:13:32 PM 39.4669 -84.4308 216° Southwest 176 203 3,300 -439 Descending Indianapolis Center
Wed 08:14:34 PM 39.4283 -84.4675 216° Southwest 177 204 3,100 -194 Descending Indianapolis Center

Login

Don't have an account? Register now (free) for customized features, flight alerts, and more!